Time;durP1;ratioP1;P1;durP2;ratioP2;P2;SDS_P1;SDS_P2;PMS_P1;PMS_P2;Temp;Humidity;BMP_temperature;BMP_pressure;BME280_temperature;BME280_humidity;BME280_pressure;Samples;Min_cycle;Max_cycle;Signal;HPM_P1;HPM_P2
2022/08/21 00:01:09;;;;;;;7.68;2.22;;;;;;;;;;5064241;28;20777;-72
2022/08/21 00:03:39;;;;;;;;;;;;;;;;;;5066391;28;20037;-72
2022/08/21 00:06:10;;;;;;;7.57;2.15;;;;;;;;;;5065539;28;20470;-71
2022/08/21 00:08:42;;;;;;;7.45;2.53;;;;;;;;;;5065539;28;20048;-72
2022/08/21 00:11:12;;;;;;;8.80;2.58;;;;;;;;;;5065805;28;20426;-71
2022/08/21 00:13:43;;;;;;;5.57;2.50;;;;;;;;;;5064788;28;20044;-71
2022/08/21 00:16:13;;;;;;;4.82;2.03;;;;;;;;;;5066970;28;20064;-71
2022/08/21 00:18:42;;;;;;;7.00;2.42;;;;;;;;;;5070288;28;20048;-72
2022/08/21 00:21:13;;;;;;;3.63;1.40;;;;;;;;;;5069039;28;20056;-71
2022/08/21 00:23:43;;;;;;;4.68;1.33;;;;;;;;;;5069591;28;20072;-72
2022/08/21 00:26:13;;;;;;;;;;;;;;;;;;5069329;28;20059;-70
2022/08/21 00:28:45;;;;;;;2.47;0.95;;;;;;;;;;5069300;28;19924;-72
2022/08/21 00:31:16;;;;;;;6.25;1.17;;;;;;;;;;5069442;28;20045;-72
2022/08/21 00:33:46;;;;;;;4.80;1.58;;;;;;;;;;5069752;28;20048;-73
2022/08/21 00:36:16;;;;;;;4.65;1.60;;;;;;;;;;5069326;28;20048;-72
2022/08/21 00:38:46;;;;;;;4.28;1.83;;;;;;;;;;5069146;28;20052;-72
2022/08/21 00:41:16;;;;;;;2.65;1.60;;;;;;;;;;5069038;28;20055;-73
2022/08/21 00:44:09;;;;;;;6.10;1.55;;;;;;;;;;5068706;28;20044;-72
2022/08/21 00:46:40;;;;;;;4.10;1.63;;;;;;;;;;5068860;28;20045;-72
2022/08/21 00:49:12;;;;;;;6.20;1.63;;;;;;;;;;5068722;28;20048;-72
2022/08/21 00:51:50;;;;;;;5.45;1.92;;;;;;;;;;5068330;28;20060;-72
2022/08/21 00:54:24;;;;;;;8.65;1.92;;;;;;;;;;5068354;28;20518;-73
2022/08/21 00:57:00;;;;;;;3.42;1.88;;;;;;;;;;5068381;28;20517;-72
2022/08/21 00:59:35;;;;;;;6.85;2.10;;;;;;;;;;5068646;28;20040;-72
2022/08/21 01:02:07;;;;;;;8.77;2.45;;;;;;;;;;5068477;28;20040;-72
2022/08/21 01:04:38;;;;;;;8.85;3.03;;;;;;;;;;5069158;28;20036;-71
2022/08/21 01:07:08;;;;;;;5.32;2.00;;;;;;;;;;5068737;28;20048;-71
2022/08/21 01:09:38;;;;;;;2.97;1.70;;;;;;;;;;5068529;28;20045;-71
2022/08/21 01:12:09;;;;;;;2.45;1.42;;;;;;;;;;5068827;28;20052;-72
2022/08/21 01:14:42;;;;;;;4.47;1.70;;;;;;;;;;5068617;28;20052;-70
2022/08/21 01:17:15;;;;;;;8.77;1.60;;;;;;;;;;5073874;28;20040;-72
2022/08/21 01:19:45;;;;;;;4.88;1.73;;;;;;;;;;5077607;28;20051;-70
2022/08/21 01:22:15;;;;;;;3.17;1.60;;;;;;;;;;5070479;28;20548;-73
2022/08/21 01:24:45;;;;;;;2.60;1.35;;;;;;;;;;5069104;28;20044;-71
2022/08/21 01:27:14;;;;;;;;;;;;;;;;;;5066785;28;20449;-73
2022/08/21 01:30:14;;;;;;;9.40;2.20;;;;;;;;;;5068390;28;19924;-71
2022/08/21 01:32:45;;;;;;;9.40;3.65;;;;;;;;;;5067488;28;20052;-72
2022/08/21 01:35:17;;;;;;;14.00;5.53;;;;;;;;;;5066819;28;20071;-72
2022/08/21 01:37:48;;;;;;;12.50;4.82;;;;;;;;;;5068136;28;20426;-72
2022/08/21 01:40:18;;;;;;;7.90;4.15;;;;;;;;;;5068097;28;20048;-71
2022/08/21 01:42:50;;;;;;;15.13;5.45;;;;;;;;;;5068504;28;20063;-72
2022/08/21 01:45:20;;;;;;;12.98;4.82;;;;;;;;;;5067929;28;20049;-72
2022/08/21 01:47:50;;;;;;;12.25;4.07;;;;;;;;;;5068219;28;20052;-72
2022/08/21 01:50:21;;;;;;;5.15;2.15;;;;;;;;;;5068210;28;20753;-72
2022/08/21 01:52:51;;;;;;;6.03;2.50;;;;;;;;;;5066340;28;20059;-72
2022/08/21 01:55:22;;;;;;;4.80;2.85;;;;;;;;;;5067265;28;20067;-72
2022/08/21 01:57:54;;;;;;;7.50;3.60;;;;;;;;;;5067583;28;20052;-72
2022/08/21 02:00:24;;;;;;;7.90;3.28;;;;;;;;;;5067714;28;20403;-71
2022/08/21 02:02:54;;;;;;;;;;;;;;;;;;5067637;28;20052;-71
2022/08/21 02:05:24;;;;;;;3.90;2.30;;;;;;;;;;5067954;28;20342;-72
2022/08/21 02:07:54;;;;;;;5.50;3.05;;;;;;;;;;5067665;28;20040;-72
2022/08/21 02:10:28;;;;;;;5.38;2.42;;;;;;;;;;5067634;28;20598;-72
2022/08/21 02:13:00;;;;;;;6.32;2.50;;;;;;;;;;5068118;28;20048;-71
2022/08/21 02:15:31;;;;;;;5.10;2.45;;;;;;;;;;5067536;28;20040;-72
2022/08/21 02:18:02;;;;;;;4.60;2.05;;;;;;;;;;5067507;28;20048;-73
2022/08/21 02:20:36;;;;;;;3.85;2.00;;;;;;;;;;5067109;28;20330;-72
2022/08/21 02:23:08;;;;;;;5.15;2.45;;;;;;;;;;5066403;28;20052;-72
2022/08/21 02:25:38;;;;;;;4.18;1.85;;;;;;;;;;5065994;28;20453;-72
2022/08/21 02:28:12;;;;;;;4.68;2.08;;;;;;;;;;5067466;28;20056;-72
2022/08/21 02:30:47;;;;;;;7.40;1.92;;;;;;;;;;5067054;28;20045;-72
2022/08/21 02:33:18;;;;;;;3.33;1.65;;;;;;;;;;5066273;28;20051;-71
2022/08/21 02:35:50;;;;;;;2.53;1.40;;;;;;;;;;5066993;28;20053;-72
2022/08/21 02:38:23;;;;;;;4.85;2.20;;;;;;;;;;5065395;28;20059;-72
2022/08/21 02:40:55;;;;;;;5.20;2.20;;;;;;;;;;5067209;28;20389;-72
2022/08/21 02:43:28;;;;;;;6.15;2.45;;;;;;;;;;5067095;28;20492;-72
2022/08/21 02:45:59;;;;;;;8.93;2.33;;;;;;;;;;5067006;28;20691;-72
2022/08/21 02:48:31;;;;;;;5.40;2.38;;;;;;;;;;5066808;28;20048;-73
2022/08/21 02:51:17;;;;;;;7.30;2.67;;;;;;;;;;5066760;28;20401;-72
2022/08/21 02:53:48;;;;;;;4.75;2.08;;;;;;;;;;5067206;28;20044;-71
2022/08/21 02:56:21;;;;;;;6.38;2.35;;;;;;;;;;5066105;28;20048;-71
2022/08/21 02:58:52;;;;;;;5.43;2.60;;;;;;;;;;5066390;28;20411;-72
2022/08/21 03:01:22;;;;;;;;;;;;;;;;;;5067117;28;20056;-72
2022/08/21 03:03:52;;;;;;;5.80;1.88;;;;;;;;;;5066453;28;19924;-72
2022/08/21 03:06:23;;;;;;;4.15;2.58;;;;;;;;;;5066450;28;20526;-69
2022/08/21 03:08:54;;;;;;;6.80;1.95;;;;;;;;;;5067286;28;20053;-71
2022/08/21 03:11:26;;;;;;;5.10;2.08;;;;;;;;;;5066092;28;20064;-71
2022/08/21 03:13:56;;;;;;;5.20;2.33;;;;;;;;;;5066018;28;20060;-71
2022/08/21 03:16:26;;;;;;;6.72;2.13;;;;;;;;;;5066759;28;20422;-71
2022/08/21 03:19:02;;;;;;;;;;;;;;;;;;5066925;28;20411;-71
2022/08/21 03:21:32;;;;;;;4.32;1.85;;;;;;;;;;5066983;28;19931;-71
2022/08/21 03:24:04;;;;;;;9.85;2.83;;;;;;;;;;5065235;28;20515;-71
2022/08/21 03:26:35;;;;;;;6.75;2.53;;;;;;;;;;5066169;28;20411;-71
2022/08/21 03:29:08;;;;;;;4.38;2.10;;;;;;;;;;5066104;28;20440;-70
2022/08/21 03:31:39;;;;;;;10.27;2.58;;;;;;;;;;5066449;28;20044;-70
2022/08/21 03:34:08;;;;;;;;;;;;;;;;;;5067070;28;20067;-72
2022/08/21 03:36:38;;;;;;;5.85;2.25;;;;;;;;;;5066246;28;19920;-71
2022/08/21 03:39:09;;;;;;;4.07;2.35;;;;;;;;;;5066193;28;20059;-71
2022/08/21 03:41:39;;;;;;;2.70;2.00;;;;;;;;;;5065948;28;20040;-71
2022/08/21 03:44:08;;;;;;;5.45;2.60;;;;;;;;;;5064959;28;20049;-72
2022/08/21 03:46:39;;;;;;;14.77;3.22;;;;;;;;;;5066558;28;20064;-72
2022/08/21 03:49:11;;;;;;;5.13;2.75;;;;;;;;;;5066321;28;20033;-71
2022/08/21 03:51:42;;;;;;;9.30;3.25;;;;;;;;;;5067161;28;20411;-72
2022/08/21 03:54:12;;;;;;;6.40;3.30;;;;;;;;;;5070386;28;20051;-72
2022/08/21 03:56:41;;;;;;;9.75;4.05;;;;;;;;;;5069356;28;20541;-72
2022/08/21 03:59:12;;;;;;;8.55;4.38;;;;;;;;;;5070363;28;20044;-72
2022/08/21 04:01:52;;;;;;;10.40;5.10;;;;;;;;;;5070056;28;20708;-70
2022/08/21 04:04:23;;;;;;;9.32;5.38;;;;;;;;;;5070008;28;20052;-70
2022/08/21 04:06:53;;;;;;;7.30;3.88;;;;;;;;;;5070128;28;20040;-69
2022/08/21 04:09:24;;;;;;;7.00;3.58;;;;;;;;;;5070168;28;20826;-71
2022/08/21 04:11:54;;;;;;;10.10;4.60;;;;;;;;;;5069754;28;20052;-72
2022/08/21 04:14:24;;;;;;;9.85;5.60;;;;;;;;;;5069572;28;20048;-73
2022/08/21 04:16:54;;;;;;;11.85;5.68;;;;;;;;;;5069812;28;20507;-71
2022/08/21 04:19:24;;;;;;;9.50;5.20;;;;;;;;;;5069404;28;20044;-71
2022/08/21 04:21:53;;;;;;;11.55;5.50;;;;;;;;;;5069494;28;20055;-71
2022/08/21 04:24:23;;;;;;;15.90;6.32;;;;;;;;;;5069805;28;20040;-71
2022/08/21 04:26:57;;;;;;;11.98;6.57;;;;;;;;;;5068435;28;20056;-71
2022/08/21 04:29:27;;;;;;;13.52;6.93;;;;;;;;;;5069811;28;20436;-71
2022/08/21 04:31:57;;;;;;;12.02;6.47;;;;;;;;;;5069872;28;20045;-72
2022/08/21 04:34:27;;;;;;;13.15;6.03;;;;;;;;;;5069759;28;20040;-71
2022/08/21 04:36:56;;;;;;;15.50;6.30;;;;;;;;;;5069168;28;20048;-72
2022/08/21 04:39:26;;;;;;;11.98;5.97;;;;;;;;;;5068971;28;20545;-71
2022/08/21 04:41:57;;;;;;;10.85;6.80;;;;;;;;;;5069280;28;20048;-71
2022/08/21 04:44:27;;;;;;;12.80;6.85;;;;;;;;;;5069314;28;20056;-73
2022/08/21 04:46:57;;;;;;;12.73;6.03;;;;;;;;;;5067827;28;20056;-71
2022/08/21 04:49:27;;;;;;;8.20;5.10;;;;;;;;;;5068621;28;20089;-70
2022/08/21 04:51:57;;;;;;;7.15;4.55;;;;;;;;;;5067866;28;20128;-71
2022/08/21 04:54:27;;;;;;;9.13;4.70;;;;;;;;;;5069080;28;20052;-72
2022/08/21 04:57:05;;;;;;;8.45;4.72;;;;;;;;;;5068800;28;20714;-71
2022/08/21 04:59:53;;;;;;;6.75;4.63;;;;;;;;;;5068886;28;20380;-71
2022/08/21 05:02:23;;;;;;;7.30;4.13;;;;;;;;;;5068352;28;20064;-71
2022/08/21 05:04:55;;;;;;;6.53;3.80;;;;;;;;;;5068777;28;20044;-70
2022/08/21 05:07:29;;;;;;;9.88;4.40;;;;;;;;;;5069095;28;20052;-71
2022/08/21 05:10:11;;;;;;;6.53;3.65;;;;;;;;;;5069083;28;20503;-72
2022/08/21 05:12:44;;;;;;;6.03;3.80;;;;;;;;;;5068812;28;20040;-72
2022/08/21 05:15:14;;;;;;;7.82;4.93;;;;;;;;;;5068464;28;20041;-72
2022/08/21 05:17:43;;;;;;;7.35;4.32;;;;;;;;;;5068380;28;20407;-70
2022/08/21 05:20:28;;;;;;;7.65;4.40;;;;;;;;;;5067334;28;20408;-71
2022/08/21 05:22:59;;;;;;;8.95;3.97;;;;;;;;;;5068643;28;20052;-71
2022/08/21 05:25:28;;;;;;;6.85;3.72;;;;;;;;;;5068537;28;20055;-71
2022/08/21 05:27:58;;;;;;;7.88;4.80;;;;;;;;;;5068075;28;20059;-69
2022/08/21 05:30:28;;;;;;;10.48;4.13;;;;;;;;;;5067383;28;20056;-72
2022/08/21 05:33:00;;;;;;;8.18;4.80;;;;;;;;;;5068539;28;20052;-70
2022/08/21 05:35:30;;;;;;;8.55;4.30;;;;;;;;;;5068286;28;20514;-72
2022/08/21 05:38:00;;;;;;;7.93;3.90;;;;;;;;;;5068320;28;20063;-71
2022/08/21 05:40:31;;;;;;;9.32;4.63;;;;;;;;;;5068312;28;20419;-70
2022/08/21 05:43:01;;;;;;;9.00;4.57;;;;;;;;;;5068463;28;20095;-71
2022/08/21 05:45:32;;;;;;;7.72;4.05;;;;;;;;;;5067923;28;20043;-71
2022/08/21 05:48:13;;;;;;;7.13;3.80;;;;;;;;;;5067832;28;20055;-71
2022/08/21 05:50:45;;;;;;;8.65;4.28;;;;;;;;;;5068184;28;20407;-72
2022/08/21 05:53:17;;;;;;;6.47;4.00;;;;;;;;;;5067961;28;20056;-70
2022/08/21 05:55:48;;;;;;;8.93;4.28;;;;;;;;;;5068055;28;20055;-69
2022/08/21 05:58:21;;;;;;;7.10;3.63;;;;;;;;;;5067888;28;20056;-70
2022/08/21 06:00:52;;;;;;;7.72;3.95;;;;;;;;;;5067667;28;20040;-71
2022/08/21 06:03:28;;;;;;;13.80;5.05;;;;;;;;;;5067786;28;20405;-71
2022/08/21 06:05:58;;;;;;;11.73;4.97;;;;;;;;;;5068224;28;20049;-71
2022/08/21 06:08:29;;;;;;;15.95;4.80;;;;;;;;;;5067439;28;20053;-71
2022/08/21 06:11:02;;;;;;;16.25;5.03;;;;;;;;;;5067838;28;20051;-71
2022/08/21 06:13:33;;;;;;;13.00;5.10;;;;;;;;;;5067574;28;20052;-71
2022/08/21 06:16:13;;;;;;;13.23;4.13;;;;;;;;;;5067203;28;20060;-72
2022/08/21 06:18:45;;;;;;;11.52;4.82;;;;;;;;;;5067603;28;20055;-70
2022/08/21 06:21:16;;;;;;;12.50;5.07;;;;;;;;;;5067626;28;20041;-71
2022/08/21 06:23:47;;;;;;;8.70;4.82;;;;;;;;;;5066926;28;20059;-71
2022/08/21 06:26:17;;;;;;;9.05;4.50;;;;;;;;;;5067323;28;20056;-71
2022/08/21 06:28:49;;;;;;;7.35;3.80;;;;;;;;;;5067060;28;20130;-70
2022/08/21 06:31:22;;;;;;;10.18;4.63;;;;;;;;;;5067249;28;20048;-72
2022/08/21 06:33:53;;;;;;;13.93;4.82;;;;;;;;;;5067416;28;20044;-71
2022/08/21 06:36:23;;;;;;;9.00;4.97;;;;;;;;;;5067191;28;20520;-71
2022/08/21 06:38:52;;;;;;;;;;;;;;;;;;5067292;28;20067;-70
2022/08/21 06:41:25;;;;;;;15.60;6.20;;;;;;;;;;5067604;28;20271;-71
2022/08/21 06:43:56;;;;;;;15.52;7.43;;;;;;;;;;5066814;28;20052;-71
2022/08/21 06:46:29;;;;;;;19.98;8.73;;;;;;;;;;5067115;28;20052;-70
2022/08/21 06:49:00;;;;;;;16.70;9.20;;;;;;;;;;5066942;28;20383;-70
2022/08/21 06:51:30;;;;;;;20.45;8.55;;;;;;;;;;5066215;28;20051;-70
2022/08/21 06:54:00;;;;;;;22.80;8.50;;;;;;;;;;5066551;28;20048;-70
2022/08/21 06:56:30;;;;;;;;;;;;;;;;;;5066780;28;20071;-69
2022/08/21 06:58:59;;;;;;;14.80;8.27;;;;;;;;;;5066924;28;19924;-71
2022/08/21 07:01:29;;;;;;;17.40;9.27;;;;;;;;;;5066636;28;20067;-71
2022/08/21 07:04:02;;;;;;;24.60;10.18;;;;;;;;;;5066562;28;20070;-70
2022/08/21 07:06:32;;;;;;;18.23;9.85;;;;;;;;;;5064774;28;20064;-71
2022/08/21 07:09:03;;;;;;;24.20;9.35;;;;;;;;;;5066512;28;20040;-71
2022/08/21 07:11:35;;;;;;;21.73;8.35;;;;;;;;;;5066542;28;20052;-71
2022/08/21 07:14:15;;;;;;;27.77;9.98;;;;;;;;;;5065066;28;20053;-69
2022/08/21 07:16:50;;;;;;;24.92;10.00;;;;;;;;;;5067168;28;20055;-71
2022/08/21 07:19:21;;;;;;;21.25;8.95;;;;;;;;;;5066555;28;20041;-71
2022/08/21 07:21:52;;;;;;;25.92;10.65;;;;;;;;;;5066259;28;20045;-71
2022/08/21 07:24:22;;;;;;;22.17;8.90;;;;;;;;;;5066469;28;20431;-70
2022/08/21 07:26:51;;;;;;;22.00;9.30;;;;;;;;;;5065838;28;20048;-71
2022/08/21 07:29:21;;;;;;;22.75;9.95;;;;;;;;;;5066533;28;20048;-71
2022/08/21 07:31:51;;;;;;;22.00;10.05;;;;;;;;;;5066536;28;20490;-70
2022/08/21 07:34:21;;;;;;;25.75;9.88;;;;;;;;;;5066520;28;20044;-71
2022/08/21 07:36:51;;;;;;;21.35;9.95;;;;;;;;;;5064836;28;20045;-69
2022/08/21 07:39:22;;;;;;;24.83;9.30;;;;;;;;;;5065960;28;20506;-71
2022/08/21 07:41:51;;;;;;;23.60;9.90;;;;;;;;;;5066609;28;20052;-70
2022/08/21 07:44:21;;;;;;;16.10;7.47;;;;;;;;;;5066959;28;20044;-71
2022/08/21 07:46:51;;;;;;;20.77;9.32;;;;;;;;;;5066406;28;20060;-71
2022/08/21 07:49:21;;;;;;;22.35;10.07;;;;;;;;;;5066456;28;20070;-70
2022/08/21 07:51:51;;;;;;;16.90;8.52;;;;;;;;;;5066268;28;20063;-70
2022/08/21 07:54:21;;;;;;;20.05;9.05;;;;;;;;;;5066134;28;20036;-71
2022/08/21 07:57:02;;;;;;;16.95;8.45;;;;;;;;;;5066175;28;20052;-71
2022/08/21 07:59:32;;;;;;;15.18;8.25;;;;;;;;;;5066220;28;20055;-72
2022/08/21 08:02:02;;;;;;;25.10;9.60;;;;;;;;;;5065660;28;20045;-71
2022/08/21 08:04:31;;;;;;;;;;;;;;;;;;5066256;28;20047;-71
2022/08/21 08:07:01;;;;;;;15.30;7.18;;;;;;;;;;5065772;28;19928;-70
2022/08/21 08:09:30;;;;;;;18.20;7.60;;;;;;;;;;5065937;28;20375;-71
2022/08/21 08:12:00;;;;;;;13.95;7.47;;;;;;;;;;5066173;28;20052;-71
2022/08/21 08:14:31;;;;;;;13.55;6.93;;;;;;;;;;5064693;28;20053;-70
2022/08/21 08:17:02;;;;;;;13.30;7.60;;;;;;;;;;5065853;28;20060;-71
2022/08/21 08:19:32;;;;;;;13.50;7.88;;;;;;;;;;5065664;28;20056;-70
2022/08/21 08:22:02;;;;;;;16.65;7.97;;;;;;;;;;5066107;28;20491;-72
2022/08/21 08:24:31;;;;;;;15.77;7.07;;;;;;;;;;5066185;28;20052;-71
2022/08/21 08:27:01;;;;;;;15.40;7.65;;;;;;;;;;5064540;28;20053;-70
2022/08/21 08:29:31;;;;;;;15.27;7.07;;;;;;;;;;5065780;28;20053;-71
2022/08/21 08:32:01;;;;;;;12.57;6.55;;;;;;;;;;5066229;28;20044;-71
2022/08/21 08:34:30;;;;;;;15.35;7.63;;;;;;;;;;5065713;28;20060;-70
2022/08/21 08:37:01;;;;;;;10.35;6.05;;;;;;;;;;5067285;28;20045;-70
2022/08/21 08:39:34;;;;;;;14.48;6.65;;;;;;;;;;5068236;28;20048;-71
2022/08/21 08:42:13;;;;;;;12.40;6.50;;;;;;;;;;5069097;28;20041;-71
2022/08/21 08:45:07;;;;;;;14.68;6.60;;;;;;;;;;5069376;28;20043;-71
2022/08/21 08:47:46;;;;;;;10.95;6.78;;;;;;;;;;5069021;28;20059;-71
2022/08/21 08:50:26;;;;;;;12.93;6.47;;;;;;;;;;5068825;28;20051;-71
2022/08/21 08:53:04;;;;;;;11.27;6.03;;;;;;;;;;5069412;28;20036;-71
2022/08/21 08:55:37;;;;;;;18.98;6.28;;;;;;;;;;5067466;28;20064;-71
2022/08/21 08:58:17;;;;;;;10.38;5.65;;;;;;;;;;5068749;28;20056;-70
2022/08/21 09:00:50;;;;;;;12.57;5.75;;;;;;;;;;5068788;28;20491;-71
2022/08/21 09:03:26;;;;;;;14.27;7.00;;;;;;;;;;5068749;28;20063;-71
2022/08/21 09:06:03;;;;;;;14.75;6.65;;;;;;;;;;5068479;28;20052;-71
2022/08/21 09:08:50;;;;;;;12.98;6.63;;;;;;;;;;5068626;28;20814;-71
2022/08/21 09:11:34;;;;;;;11.95;6.68;;;;;;;;;;5069087;28;20084;-71
2022/08/21 09:14:16;;;;;;;10.13;6.07;;;;;;;;;;5069010;28;20036;-71
2022/08/21 09:17:15;;;;;;;15.35;7.10;;;;;;;;;;5069392;28;20056;-73
2022/08/21 09:19:58;;;;;;;14.85;6.53;;;;;;;;;;5068654;28;20037;-69
2022/08/21 09:22:49;;;;;;;19.00;6.93;;;;;;;;;;5068444;28;20057;-71
2022/08/21 09:25:26;;;;;;;12.93;6.97;;;;;;;;;;5068546;28;20041;-71
2022/08/21 09:27:56;;;;;;;16.33;6.63;;;;;;;;;;5068504;28;20049;-71
2022/08/21 09:30:30;;;;;;;11.68;6.57;;;;;;;;;;5066900;28;20517;-71
2022/08/21 09:33:00;;;;;;;16.67;6.35;;;;;;;;;;5066456;28;20059;-69
2022/08/21 09:35:32;;;;;;;15.52;6.35;;;;;;;;;;5068505;28;20059;-71
2022/08/21 09:38:07;;;;;;;14.63;6.90;;;;;;;;;;5068134;28;20037;-70
2022/08/21 09:40:47;;;;;;;12.55;6.10;;;;;;;;;;5068583;28;20040;-70
2022/08/21 09:43:25;;;;;;;18.60;7.47;;;;;;;;;;5067805;28;20048;-71
2022/08/21 09:46:10;;;;;;;13.77;7.38;;;;;;;;;;5068380;28;20040;-70
2022/08/21 09:48:49;;;;;;;15.00;6.93;;;;;;;;;;5066751;28;20511;-73
2022/08/21 09:51:35;;;;;;;13.50;6.85;;;;;;;;;;5068178;28;20044;-72
2022/08/21 09:54:07;;;;;;;13.75;6.20;;;;;;;;;;5068541;28;20048;-72
2022/08/21 09:59:40;;;;;;;12.25;6.70;;;;;;;;;;5067909;28;20075;-71
2022/08/21 10:02:34;;;;;;;16.73;7.68;;;;;;;;;;5067905;28;20863;-73
2022/08/21 10:05:28;;;;;;;14.68;6.53;;;;;;;;;;5068222;28;20040;-71
2022/08/21 10:07:58;;;;;;;14.55;7.68;;;;;;;;;;5067553;28;20044;-71
2022/08/21 10:10:36;;;;;;;13.05;7.30;;;;;;;;;;5067547;28;20156;-72
2022/08/21 10:13:34;;;;;;;13.00;6.53;;;;;;;;;;5067946;28;20044;-71
2022/08/21 10:16:51;;;;;;;13.07;6.95;;;;;;;;;;5067573;28;20048;-71
2022/08/21 10:19:32;;;;;;;13.57;6.70;;;;;;;;;;5061205;28;20053;-71
2022/08/21 10:22:05;;;;;;;12.07;6.88;;;;;;;;;;5067621;28;20407;-70
2022/08/21 10:24:58;;;;;;;15.65;7.07;;;;;;;;;;5067244;28;20403;-71
2022/08/21 10:27:39;;;;;;;9.70;5.53;;;;;;;;;;5067782;28;20048;-72
2022/08/21 10:30:19;;;;;;;13.05;6.85;;;;;;;;;;5067066;28;20041;-71
2022/08/21 10:33:08;;;;;;;12.00;6.15;;;;;;;;;;5067240;28;20051;-71
2022/08/21 10:35:44;;;;;;;16.85;7.93;;;;;;;;;;5067348;28;20044;-71
2022/08/21 10:38:23;;;;;;;17.05;7.00;;;;;;;;;;5067138;28;20059;-71
2022/08/21 10:41:36;;;;;;;10.82;6.10;;;;;;;;;;5067002;28;20059;-71
2022/08/21 10:44:21;;;;;;;11.18;6.95;;;;;;;;;;5067057;28;20055;-71
2022/08/21 10:47:08;;;;;;;13.15;7.80;;;;;;;;;;5066991;28;20051;-71
2022/08/21 10:50:03;;;;;;;12.70;6.65;;;;;;;;;;5067343;28;20633;-71
2022/08/21 10:53:05;;;;;;;15.07;8.02;;;;;;;;;;5066951;28;20040;-72
2022/08/21 10:55:55;;;;;;;9.93;6.30;;;;;;;;;;5066694;28;20052;-70
2022/08/21 10:58:46;;;;;;;14.05;6.93;;;;;;;;;;5065938;28;20052;-70
2022/08/21 11:01:28;;;;;;;13.00;7.18;;;;;;;;;;5065061;28;20052;-72
2022/08/21 11:04:12;;;;;;;13.27;6.97;;;;;;;;;;5066893;28;20048;-71
2022/08/21 11:06:59;;;;;;;13.75;7.90;;;;;;;;;;5066626;28;20487;-72
2022/08/21 11:09:33;;;;;;;19.08;7.85;;;;;;;;;;5066613;28;20055;-71
2022/08/21 11:12:36;;;;;;;18.25;10.00;;;;;;;;;;5066369;28;20059;-72
2022/08/21 11:15:47;;;;;;;19.50;11.18;;;;;;;;;;5066509;28;20047;-72
2022/08/21 11:18:39;;;;;;;14.98;9.27;;;;;;;;;;5066386;28;20056;-72
2022/08/21 11:21:38;;;;;;;13.20;7.28;;;;;;;;;;5067140;28;20056;-71
2022/08/21 11:24:36;;;;;;;12.52;7.22;;;;;;;;;;5066810;28;20052;-73
2022/08/21 11:27:43;;;;;;;14.00;7.82;;;;;;;;;;5066389;28;20064;-72
2022/08/21 11:30:14;;;;;;;12.13;7.88;;;;;;;;;;5066614;28;20052;-72
2022/08/21 11:33:02;;;;;;;11.85;7.32;;;;;;;;;;5066194;28;20824;-73
2022/08/21 11:35:36;;;;;;;15.52;6.85;;;;;;;;;;5067004;28;20079;-74
2022/08/21 11:38:28;;;;;;;17.42;6.90;;;;;;;;;;5066227;28;20487;-72
2022/08/21 11:41:21;;;;;;;11.05;6.50;;;;;;;;;;5066099;28;20503;-72
2022/08/21 11:44:21;;;;;;;12.30;7.65;;;;;;;;;;5066592;28;20048;-72
2022/08/21 11:47:13;;;;;;;10.82;6.85;;;;;;;;;;5066304;28;20045;-72
2022/08/21 11:50:18;;;;;;;10.93;6.50;;;;;;;;;;5066198;28;20052;-71
2022/08/21 11:53:19;;;;;;;10.80;5.97;;;;;;;;;;5066132;28;20060;-71
2022/08/21 11:56:04;;;;;;;9.98;6.45;;;;;;;;;;5064619;28;20547;-72
2022/08/21 11:58:44;;;;;;;9.60;5.68;;;;;;;;;;5066186;28;20072;-72
2022/08/21 12:01:25;;;;;;;10.13;6.20;;;;;;;;;;5065973;28;20395;-72
2022/08/21 12:04:20;;;;;;;8.98;5.28;;;;;;;;;;5064582;28;20045;-72
2022/08/21 12:06:54;;;;;;;9.75;6.07;;;;;;;;;;5060445;28;20049;-73
2022/08/21 12:09:24;;;;;;;8.38;6.05;;;;;;;;;;5064729;28;20059;-71
2022/08/21 12:12:10;;;;;;;11.13;5.30;;;;;;;;;;5067318;28;20037;-72
2022/08/21 12:14:46;;;;;;;8.05;5.38;;;;;;;;;;5069669;28;20049;-72
2022/08/21 12:17:22;;;;;;;8.48;5.97;;;;;;;;;;5069033;28;20364;-73
2022/08/21 12:20:36;;;;;;;8.07;5.25;;;;;;;;;;5070028;28;20052;-73
2022/08/21 12:23:13;;;;;;;11.68;5.65;;;;;;;;;;5068708;28;20533;-72
2022/08/21 12:26:20;;;;;;;9.88;4.45;;;;;;;;;;5070454;28;20059;-73
2022/08/21 12:28:51;;;;;;;9.68;4.18;;;;;;;;;;5068168;28;20044;-73
2022/08/21 12:31:25;;;;;;;10.13;4.70;;;;;;;;;;5069447;28;20818;-73
2022/08/21 12:34:03;;;;;;;8.80;4.32;;;;;;;;;;5069408;28;20048;-73
2022/08/21 12:36:45;;;;;;;6.70;3.85;;;;;;;;;;5069564;28;20051;-73
2022/08/21 12:39:25;;;;;;;8.05;3.75;;;;;;;;;;5069153;28;20060;-73
2022/08/21 12:42:01;;;;;;;8.98;4.32;;;;;;;;;;5069525;28;20522;-75
2022/08/21 12:44:39;;;;;;;7.97;4.03;;;;;;;;;;5069264;28;20048;-73
2022/08/21 12:47:49;;;;;;;7.97;4.20;;;;;;;;;;5069168;28;20053;-73
2022/08/21 12:50:49;;;;;;;7.40;3.70;;;;;;;;;;5059255;28;20067;-73
2022/08/21 12:53:56;;;;;;;5.57;3.78;;;;;;;;;;5035588;28;20060;-74
2022/08/21 12:56:30;;;;;;;10.02;4.47;;;;;;;;;;4986472;28;20050;-73
2022/08/21 12:59:06;;;;;;;9.73;4.70;;;;;;;;;;5059147;28;20092;-74
2022/08/21 13:01:47;;;;;;;7.50;4.57;;;;;;;;;;5067709;28;20051;-73
2022/08/21 13:04:20;;;;;;;8.90;5.32;;;;;;;;;;5066193;28;20376;-74
2022/08/21 13:06:55;;;;;;;7.20;4.07;;;;;;;;;;5068700;28;20048;-74
2022/08/21 13:09:28;;;;;;;5.88;3.83;;;;;;;;;;5068348;28;20048;-75
2022/08/21 13:12:00;;;;;;;8.20;4.03;;;;;;;;;;5068163;28;20082;-75
2022/08/21 13:14:47;;;;;;;7.15;3.53;;;;;;;;;;5068431;28;20511;-76
2022/08/21 13:17:21;;;;;;;9.02;3.92;;;;;;;;;;5068752;28;21101;-76
2022/08/21 13:19:56;;;;;;;9.43;3.53;;;;;;;;;;5068828;28;20055;-77
2022/08/21 13:22:28;;;;;;;5.68;3.22;;;;;;;;;;5068810;28;20415;-76
2022/08/21 13:25:09;;;;;;;5.40;2.22;;;;;;;;;;5067720;28;20044;-75
2022/08/21 13:27:40;;;;;;;6.38;2.47;;;;;;;;;;5068716;28;20395;-74
2022/08/21 13:30:21;;;;;;;7.10;3.70;;;;;;;;;;5068421;28;20044;-75
2022/08/21 13:32:56;;;;;;;5.45;3.22;;;;;;;;;;5068746;28;20047;-75
2022/08/21 13:35:27;;;;;;;;;;;;;;;;;;5068862;28;20044;-74
2022/08/21 13:37:58;;;;;;;7.13;3.60;;;;;;;;;;5068297;28;19924;-76
2022/08/21 13:40:42;;;;;;;4.85;2.95;;;;;;;;;;5067688;28;20041;-75
2022/08/21 13:43:17;;;;;;;5.80;3.08;;;;;;;;;;5067926;28;20044;-75
2022/08/21 13:45:54;;;;;;;8.57;2.83;;;;;;;;;;5067966;28;20053;-76
2022/08/21 13:48:28;;;;;;;5.70;2.90;;;;;;;;;;5068048;28;20055;-74
2022/08/21 13:51:00;;;;;;;5.65;2.80;;;;;;;;;;5068124;28;20048;-75
2022/08/21 13:53:44;;;;;;;4.70;2.97;;;;;;;;;;5067958;28;20048;-75
2022/08/21 13:56:30;;;;;;;6.10;3.63;;;;;;;;;;5067757;28;20502;-75
2022/08/21 13:59:01;;;;;;;11.10;4.95;;;;;;;;;;5068502;28;20040;-75
2022/08/21 14:01:58;;;;;;;5.70;3.47;;;;;;;;;;5067701;28;20501;-76
2022/08/21 14:04:54;;;;;;;5.70;3.75;;;;;;;;;;5058750;28;20423;-75
2022/08/21 14:07:33;;;;;;;4.30;2.47;;;;;;;;;;5067300;28;20056;-75
2022/08/21 14:10:23;;;;;;;4.30;2.65;;;;;;;;;;5067622;28;20055;-74
2022/08/21 14:12:56;;;;;;;6.15;3.20;;;;;;;;;;5067183;28;20376;-76
2022/08/21 14:15:30;;;;;;;4.90;2.33;;;;;;;;;;5067604;28;20049;-74
2022/08/21 14:18:28;;;;;;;4.18;2.88;;;;;;;;;;5068132;28;20052;-75
2022/08/21 14:21:06;;;;;;;6.05;2.60;;;;;;;;;;5064506;28;20059;-74
2022/08/21 14:23:38;;;;;;;3.67;2.67;;;;;;;;;;5067515;28;20072;-74
2022/08/21 14:26:09;;;;;;;5.78;2.35;;;;;;;;;;5067536;28;20075;-75
2022/08/21 14:28:42;;;;;;;5.78;3.00;;;;;;;;;;5067112;28;20053;-76
2022/08/21 14:31:16;;;;;;;4.05;2.65;;;;;;;;;;5066975;28;20371;-74
2022/08/21 14:33:47;;;;;;;6.05;2.08;;;;;;;;;;5064939;28;20052;-75
2022/08/21 14:36:18;;;;;;;5.38;2.15;;;;;;;;;;5066944;28;20423;-75
2022/08/21 14:38:49;;;;;;;4.45;2.00;;;;;;;;;;5067101;28;20522;-75
2022/08/21 14:41:23;;;;;;;3.40;1.80;;;;;;;;;;5067041;28;20507;-75
2022/08/21 14:43:55;;;;;;;4.20;2.25;;;;;;;;;;5067197;28;20041;-76
2022/08/21 14:46:38;;;;;;;4.63;2.50;;;;;;;;;;5066880;28;20053;-74
2022/08/21 14:49:29;;;;;;;5.97;2.33;;;;;;;;;;5066840;28;20116;-75
2022/08/21 14:51:59;;;;;;;5.22;2.33;;;;;;;;;;5066578;28;20048;-74
2022/08/21 14:54:31;;;;;;;4.28;2.17;;;;;;;;;;5066721;28;20052;-75
2022/08/21 14:57:10;;;;;;;5.65;2.15;;;;;;;;;;5066523;28;20056;-75
2022/08/21 14:59:40;;;;;;;3.40;2.20;;;;;;;;;;5067258;28;20417;-75
2022/08/21 15:02:11;;;;;;;4.05;2.30;;;;;;;;;;5066633;28;20456;-75
2022/08/21 15:04:42;;;;;;;4.93;2.10;;;;;;;;;;5067147;28;20053;-75
2022/08/21 15:07:13;;;;;;;9.57;4.40;;;;;;;;;;5065244;28;20052;-76
2022/08/21 15:09:44;;;;;;;3.05;1.92;;;;;;;;;;5065319;28;20749;-76
2022/08/21 15:12:15;;;;;;;5.30;2.38;;;;;;;;;;5065240;28;20506;-75
2022/08/21 15:14:45;;;;;;;4.20;2.30;;;;;;;;;;5066401;28;20040;-74
2022/08/21 15:17:15;;;;;;;4.88;2.25;;;;;;;;;;5066629;28;20055;-75
2022/08/21 15:19:45;;;;;;;4.32;2.30;;;;;;;;;;5066426;28;20053;-75
2022/08/21 15:22:15;;;;;;;3.17;2.10;;;;;;;;;;5064957;28;20057;-75
2022/08/21 15:24:55;;;;;;;5.05;1.95;;;;;;;;;;5066595;28;20040;-75
2022/08/21 15:27:25;;;;;;;3.53;1.92;;;;;;;;;;5065087;28;20590;-75
2022/08/21 15:29:55;;;;;;;2.90;2.03;;;;;;;;;;5066199;28;20045;-76
2022/08/21 15:32:29;;;;;;;2.70;1.90;;;;;;;;;;5065883;28;20041;-73
2022/08/21 15:34:59;;;;;;;5.45;2.67;;;;;;;;;;5066184;28;20040;-75